createdAt,value
2019-02-11T00:01:18.062Z,4.18
2019-02-11T00:03:44.573Z,4.15
2019-02-11T00:06:11.100Z,4.17
2019-02-11T00:08:37.573Z,4.13
2019-02-11T00:11:04.168Z,4.10
2019-02-11T00:13:30.828Z,4.11
2019-02-11T00:15:57.351Z,4.12
2019-02-11T00:18:24.101Z,4.11
2019-02-11T00:20:51.752Z,4.13
2019-02-11T00:23:18.558Z,4.07
2019-02-11T00:25:45.173Z,4.08
2019-02-11T00:28:11.666Z,4.08
2019-02-11T00:30:38.199Z,4.09
2019-02-11T00:33:06.405Z,4.06
2019-02-11T00:35:32.993Z,4.07
2019-02-11T00:37:59.558Z,4.05
2019-02-11T00:40:26.107Z,4.05
2019-02-11T00:42:52.624Z,3.99
2019-02-11T00:45:19.175Z,3.89
2019-02-11T00:47:45.836Z,3.81
2019-02-11T00:50:12.414Z,3.69
2019-02-11T00:52:39.077Z,3.63
2019-02-11T00:55:05.823Z,3.62
2019-02-11T00:57:32.533Z,3.56
2019-02-11T00:59:59.250Z,3.46
2019-02-11T01:02:25.830Z,3.44
2019-02-11T01:04:53.650Z,3.40
2019-02-11T01:07:20.415Z,3.34
2019-02-11T01:09:47.015Z,3.29
2019-02-11T01:12:13.647Z,3.27
2019-02-11T01:14:41.416Z,3.28
2019-02-11T01:17:08.033Z,3.22
2019-02-11T01:19:34.941Z,3.17
2019-02-11T01:22:01.851Z,3.06
2019-02-11T01:24:28.583Z,3.04
2019-02-11T01:26:55.226Z,3.02
2019-02-11T01:29:21.860Z,2.99
2019-02-11T01:31:48.478Z,2.95
2019-02-11T01:34:15.078Z,2.97
2019-02-11T01:36:42.054Z,2.94
2019-02-11T01:39:08.612Z,2.92
2019-02-11T01:41:35.203Z,2.87
2019-02-11T01:44:01.890Z,2.84
2019-02-11T01:46:28.542Z,2.83
2019-02-11T01:48:55.141Z,2.81
2019-02-11T01:51:22.354Z,2.82
2019-02-11T01:53:50.074Z,2.82
2019-02-11T01:56:16.725Z,2.80
2019-02-11T01:58:44.758Z,2.81
2019-02-11T02:01:11.363Z,2.85
2019-02-11T02:03:38.091Z,2.84
2019-02-11T02:06:04.651Z,2.84
2019-02-11T02:08:32.604Z,2.83
2019-02-11T02:10:59.183Z,2.83
2019-02-11T02:13:25.892Z,2.88
2019-02-11T02:15:53.856Z,2.83
2019-02-11T02:18:21.423Z,2.81
2019-02-11T02:20:47.937Z,2.81
2019-02-11T02:23:14.532Z,2.80
2019-02-11T02:25:41.416Z,2.83
2019-02-11T02:28:08.025Z,2.84
2019-02-11T02:30:34.635Z,2.80
2019-02-11T02:33:01.689Z,2.78
2019-02-11T02:35:28.271Z,2.78
2019-02-11T02:37:54.891Z,2.75
2019-02-11T02:40:53.993Z,2.73
2019-02-11T02:43:21.245Z,2.70
2019-02-11T02:45:48.116Z,2.69
2019-02-11T02:48:14.765Z,2.70
2019-02-11T02:50:41.361Z,2.70
2019-02-11T02:53:08.456Z,2.71
2019-02-11T02:55:37.573Z,2.69
2019-02-11T02:58:04.201Z,2.62
2019-02-11T03:00:30.932Z,2.56
2019-02-11T03:02:58.195Z,2.55
2019-02-11T03:05:24.797Z,2.56
2019-02-11T03:07:51.578Z,2.53
2019-02-11T03:10:18.358Z,2.50
2019-02-11T03:12:45.154Z,2.48
2019-02-11T03:15:11.781Z,2.49
2019-02-11T03:17:38.462Z,2.45
2019-02-11T03:20:12.255Z,2.46
2019-02-11T03:22:39.223Z,2.49
2019-02-11T03:25:05.942Z,2.48
2019-02-11T03:27:32.639Z,2.45
2019-02-11T03:30:00.693Z,2.44
2019-02-11T03:32:27.559Z,2.44
2019-02-11T03:34:54.118Z,2.43
2019-02-11T03:37:20.669Z,2.41
2019-02-11T03:39:47.619Z,2.41
2019-02-11T03:42:14.267Z,2.38
2019-02-11T03:44:40.914Z,2.41
2019-02-11T03:47:07.683Z,2.38
2019-02-11T03:49:34.621Z,2.42
2019-02-11T03:52:01.362Z,2.42
2019-02-11T03:54:28.109Z,2.43
2019-02-11T03:56:55.045Z,2.45
2019-02-11T03:59:23.525Z,2.45
2019-02-11T04:01:51.601Z,2.41
2019-02-11T04:04:18.241Z,2.45
2019-02-11T04:06:44.972Z,2.45
2019-02-11T04:09:11.653Z,2.44
2019-02-11T04:11:38.405Z,2.45
2019-02-11T04:14:05.401Z,2.44
2019-02-11T04:16:32.058Z,2.46
2019-02-11T04:18:59.196Z,2.47
2019-02-11T04:21:26.742Z,2.48
2019-02-11T04:23:53.538Z,2.53
2019-02-11T04:26:21.395Z,2.57
2019-02-11T04:28:48.062Z,2.60
2019-02-11T04:31:14.715Z,2.60
2019-02-11T04:34:00.181Z,2.64
2019-02-11T04:36:27.118Z,2.62
2019-02-11T04:38:53.965Z,2.61
2019-02-11T04:41:21.589Z,2.63
2019-02-11T04:43:48.515Z,2.67
2019-02-11T04:46:15.513Z,2.67
2019-02-11T04:48:42.531Z,2.69
2019-02-11T04:51:09.338Z,2.71
2019-02-11T04:53:36.013Z,2.73
2019-02-11T04:56:03.774Z,2.75
2019-02-11T04:58:30.662Z,2.76
2019-02-11T05:00:57.375Z,2.77
2019-02-11T05:03:24.178Z,2.79
2019-02-11T05:05:52.703Z,2.81
2019-02-11T05:08:19.599Z,2.84
2019-02-11T05:10:46.409Z,2.93
2019-02-11T05:13:15.762Z,2.92
2019-02-11T05:15:42.765Z,2.92
2019-02-11T05:18:09.305Z,2.92
2019-02-11T05:20:35.900Z,2.89
2019-02-11T05:23:02.791Z,2.90
2019-02-11T05:25:29.778Z,2.89
2019-02-11T05:27:56.433Z,2.87
2019-02-11T05:30:23.096Z,2.85
2019-02-11T05:32:50.133Z,2.85
2019-02-11T05:35:16.780Z,2.85
2019-02-11T05:37:44.193Z,2.85
2019-02-11T05:40:11.364Z,2.83
2019-02-11T05:42:39.338Z,2.82
2019-02-11T05:45:06.473Z,2.82
2019-02-11T05:47:33.304Z,2.84
2019-02-11T05:49:59.962Z,2.87
2019-02-11T05:52:26.544Z,2.83
2019-02-11T05:54:53.170Z,2.84
2019-02-11T05:57:19.751Z,2.83
2019-02-11T05:59:46.428Z,2.84
2019-02-11T06:02:14.965Z,2.83
2019-02-11T06:04:41.997Z,2.83
2019-02-11T06:07:09.255Z,2.87
2019-02-11T06:09:35.964Z,2.90
2019-02-11T06:12:02.686Z,2.90
2019-02-11T06:14:29.546Z,2.94
2019-02-11T06:16:56.524Z,2.99
2019-02-11T06:19:23.285Z,2.99
2019-02-11T06:21:49.852Z,3.01
2019-02-11T06:24:16.564Z,3.02
2019-02-11T06:26:43.214Z,3.06
2019-02-11T06:29:10.024Z,3.06
2019-02-11T06:31:36.918Z,3.05
2019-02-11T06:34:04.448Z,3.03
2019-02-11T06:36:32.961Z,3.07
2019-02-11T06:39:01.977Z,3.08
2019-02-11T06:41:28.640Z,3.08
2019-02-11T06:43:55.485Z,3.07
2019-02-11T06:46:22.227Z,3.06
2019-02-11T06:48:48.978Z,3.09
2019-02-11T06:51:15.726Z,3.14
2019-02-11T06:53:45.886Z,3.12
2019-02-11T06:56:12.884Z,3.14
2019-02-11T06:58:39.955Z,3.15
2019-02-11T07:01:06.661Z,3.17
2019-02-11T07:03:33.763Z,3.15
2019-02-11T07:06:00.617Z,3.17
2019-02-11T07:08:27.276Z,3.21
2019-02-11T07:10:55.789Z,3.25
2019-02-11T07:13:23.661Z,3.22
2019-02-11T07:15:50.430Z,3.19
2019-02-11T07:18:17.519Z,3.18
2019-02-11T07:20:44.308Z,3.21
2019-02-11T07:23:11.081Z,3.25
2019-02-11T07:25:38.527Z,3.28
2019-02-11T07:28:05.253Z,3.32
2019-02-11T07:30:32.137Z,3.32
2019-02-11T07:32:58.811Z,3.37
2019-02-11T07:35:25.593Z,3.39
2019-02-11T07:37:52.832Z,3.40
2019-02-11T07:40:19.613Z,3.43
2019-02-11T07:42:55.038Z,3.40
2019-02-11T07:45:30.075Z,3.42
2019-02-11T07:47:56.190Z,3.48
2019-02-11T07:50:22.887Z,3.47
2019-02-11T07:52:50.030Z,3.44
2019-02-11T07:55:17.857Z,3.45
2019-02-11T07:57:45.065Z,3.51
2019-02-11T08:00:12.640Z,3.52
2019-02-11T08:02:40.347Z,3.58
2019-02-11T08:05:08.665Z,3.63
2019-02-11T08:07:36.094Z,3.63
2019-02-11T08:10:03.748Z,3.68
2019-02-11T08:12:36.801Z,3.72
2019-02-11T08:15:06.402Z,3.76
2019-02-11T08:17:36.256Z,3.78
2019-02-11T08:20:05.374Z,3.78
2019-02-11T08:22:33.051Z,3.86
2019-02-11T08:25:01.465Z,4.11
2019-02-11T08:27:28.793Z,4.21
2019-02-11T08:29:55.352Z,4.49
2019-02-11T08:32:22.049Z,4.48
2019-02-11T08:34:58.439Z,4.41
2019-02-11T08:37:25.077Z,4.35
2019-02-11T08:39:51.766Z,4.33
2019-02-11T08:42:18.519Z,4.32
2019-02-11T08:44:54.219Z,4.26
2019-02-11T08:47:21.136Z,4.15
2019-02-11T08:49:47.776Z,3.97
2019-02-11T08:52:14.476Z,3.91
2019-02-11T08:54:41.427Z,3.91
2019-02-11T08:57:08.525Z,3.86
2019-02-11T08:59:35.587Z,3.94
2019-02-11T09:02:02.731Z,4.00
2019-02-11T09:04:38.322Z,4.08
2019-02-11T09:07:13.496Z,4.13
2019-02-11T09:09:50.431Z,4.20
2019-02-11T09:12:26.902Z,4.29
2019-02-11T09:14:54.154Z,4.74
2019-02-11T09:17:20.936Z,5.13
2019-02-11T09:19:49.568Z,5.44
2019-02-11T09:22:16.236Z,5.64
2019-02-11T09:24:43.807Z,5.95
2019-02-11T09:27:10.679Z,6.37
2019-02-11T09:29:37.288Z,6.45
2019-02-11T09:32:04.417Z,6.54
2019-02-11T09:34:31.354Z,6.35
2019-02-11T09:36:58.211Z,6.32
2019-02-11T09:39:25.140Z,6.32
2019-02-11T09:41:51.840Z,6.15
2019-02-11T09:44:18.364Z,6.35
2019-02-11T09:46:45.122Z,6.52
2019-02-11T09:49:11.843Z,6.75
2019-02-11T09:51:41.840Z,6.31
2019-02-11T09:54:08.871Z,5.65
2019-02-11T09:56:36.075Z,5.41
2019-02-11T09:59:03.398Z,5.39
2019-02-11T10:01:32.831Z,5.37
2019-02-11T10:03:59.981Z,5.39
2019-02-11T10:06:26.820Z,5.29
2019-02-11T10:08:53.737Z,5.16
2019-02-11T10:11:20.772Z,5.22
2019-02-11T10:13:47.674Z,5.21
2019-02-11T10:16:14.691Z,5.17
2019-02-11T10:18:43.691Z,5.21
2019-02-11T10:21:11.006Z,5.25
2019-02-11T10:23:38.017Z,5.33
2019-02-11T10:26:04.974Z,5.37
2019-02-11T10:28:40.339Z,5.44
2019-02-11T10:31:08.610Z,5.40
2019-02-11T10:33:35.321Z,5.32
2019-02-11T10:36:03.209Z,5.35
2019-02-11T10:38:36.250Z,5.35
2019-02-11T10:40:58.664Z,5.30
2019-02-11T10:43:25.304Z,5.12
2019-02-11T10:45:52.153Z,5.19
2019-02-11T10:48:18.985Z,5.06
2019-02-11T10:50:45.601Z,4.96
2019-02-11T10:53:12.303Z,5.11
2019-02-11T10:55:39.205Z,5.17
2019-02-11T10:58:05.929Z,5.08
2019-02-11T11:00:32.885Z,5.13
2019-02-11T11:02:59.802Z,4.97
2019-02-11T11:05:26.612Z,5.43
2019-02-11T11:07:53.421Z,5.57
2019-02-11T11:10:24.066Z,5.54
2019-02-11T11:12:50.831Z,5.75
2019-02-11T11:15:17.914Z,5.72
2019-02-11T11:17:46.572Z,5.60
2019-02-11T11:20:14.524Z,5.46
2019-02-11T11:22:41.230Z,5.42
2019-02-11T11:25:08.590Z,5.39
2019-02-11T11:27:35.567Z,5.40
2019-02-11T11:30:02.484Z,5.16
2019-02-11T11:32:29.399Z,5.16
2019-02-11T11:34:56.114Z,5.18
2019-02-11T11:37:22.841Z,5.28
2019-02-11T11:39:49.927Z,5.31
2019-02-11T11:42:16.630Z,5.21
2019-02-11T11:44:43.754Z,5.07
2019-02-11T11:47:10.447Z,4.90
2019-02-11T11:49:37.466Z,4.82
2019-02-11T11:52:04.471Z,4.89
2019-02-11T11:54:30.998Z,4.94
2019-02-11T11:56:59.457Z,5.16
2019-02-11T11:59:26.504Z,5.35
2019-02-11T12:02:00.408Z,5.67
2019-02-11T12:04:27.553Z,6.08
2019-02-11T12:06:54.131Z,6.66
2019-02-11T12:09:20.799Z,7.10
2019-02-11T12:11:47.394Z,7.23
2019-02-11T12:14:14.376Z,7.34
2019-02-11T12:16:56.137Z,7.02
2019-02-11T12:19:13.803Z,6.69
2019-02-11T12:21:40.536Z,6.36
2019-02-11T12:24:07.273Z,6.32
2019-02-11T12:26:33.873Z,6.43
2019-02-11T12:29:00.721Z,6.28
2019-02-11T12:31:27.609Z,6.17
2019-02-11T12:33:54.511Z,6.10
2019-02-11T12:36:21.126Z,6.18
2019-02-11T12:38:47.827Z,6.34
2019-02-11T12:41:14.593Z,6.28
2019-02-11T12:43:41.301Z,6.12
2019-02-11T12:46:07.898Z,6.06
2019-02-11T12:48:34.898Z,5.89
2019-02-11T12:51:01.583Z,5.76
2019-02-11T12:53:28.313Z,5.79
2019-02-11T12:55:55.259Z,5.72
2019-02-11T12:58:23.017Z,5.72
2019-02-11T13:00:49.663Z,5.61
2019-02-11T13:03:17.751Z,5.59
2019-02-11T13:05:46.337Z,5.55
2019-02-11T13:08:13.719Z,5.47
2019-02-11T13:10:42.833Z,5.34
2019-02-11T13:13:09.646Z,5.19
2019-02-11T13:15:58.583Z,5.17
2019-02-11T13:18:05.568Z,5.32
2019-02-11T13:20:32.411Z,5.45
2019-02-11T13:23:02.302Z,5.41
2019-02-11T13:25:42.241Z,5.31
2019-02-11T13:28:10.561Z,5.41
2019-02-11T13:30:37.445Z,5.58
2019-02-11T13:33:04.814Z,6.09
2019-02-11T13:35:31.927Z,6.26
2019-02-11T13:38:03.175Z,6.10
2019-02-11T13:40:33.859Z,5.84
2019-02-11T13:43:02.315Z,5.71
2019-02-11T13:45:48.934Z,5.57
2019-02-11T13:48:06.930Z,5.46
2019-02-11T13:50:34.317Z,5.39
2019-02-11T13:53:00.958Z,5.54
2019-02-11T13:55:30.470Z,5.61
2019-02-11T13:57:57.087Z,5.48
2019-02-11T14:00:33.908Z,5.34
2019-02-11T14:03:05.935Z,5.29
2019-02-11T14:05:40.473Z,5.21
2019-02-11T14:08:11.442Z,5.25
2019-02-11T14:10:44.486Z,5.19
2019-02-11T14:13:13.589Z,5.18
2019-02-11T14:15:54.555Z,5.13
2019-02-11T14:18:25.771Z,4.90
2019-02-11T14:21:01.730Z,4.74
2019-02-11T14:23:35.284Z,4.55
2019-02-11T14:26:02.025Z,4.52
2019-02-11T14:28:29.074Z,4.58
2019-02-11T14:31:00.410Z,4.59
2019-02-11T14:33:28.556Z,4.64
2019-02-11T14:35:56.430Z,4.54
2019-02-11T14:38:29.721Z,4.41
2019-02-11T14:40:57.836Z,4.37
2019-02-11T14:43:24.964Z,4.36
2019-02-11T14:45:55.328Z,4.30
2019-02-11T14:48:28.122Z,4.28
2019-02-11T14:50:59.198Z,4.10
2019-02-11T14:53:41.765Z,4.10
2019-02-11T14:56:12.795Z,4.03
2019-02-11T14:58:42.911Z,3.90
2019-02-11T15:01:12.291Z,3.92
2019-02-11T15:03:38.909Z,3.95
2019-02-11T15:06:05.741Z,4.08
2019-02-11T15:08:33.987Z,4.13
2019-02-11T15:11:02.563Z,4.18
2019-02-11T15:13:42.373Z,4.18
2019-02-11T15:16:13.064Z,4.20
2019-02-11T15:18:44.100Z,4.16
2019-02-11T15:21:10.864Z,4.05
2019-02-11T15:23:39.259Z,4.02
2019-02-11T15:26:14.282Z,3.96
2019-02-11T15:28:43.964Z,3.96
2019-02-11T15:31:20.749Z,3.97
2019-02-11T15:33:52.548Z,3.98
2019-02-11T15:36:20.232Z,3.95
2019-02-11T15:38:50.499Z,3.95
2019-02-11T15:41:17.077Z,3.90
2019-02-11T15:43:44.025Z,3.87
2019-02-11T15:46:14.515Z,3.88
2019-02-11T15:48:43.074Z,3.78
2019-02-11T15:51:12.730Z,3.77
2019-02-11T15:53:40.094Z,3.72
2019-02-11T15:56:35.483Z,3.62
2019-02-11T15:59:09.168Z,3.59
2019-02-11T16:01:37.537Z,3.63
2019-02-11T16:04:07.826Z,3.65
2019-02-11T16:06:38.343Z,3.69
2019-02-11T16:09:06.210Z,3.67
2019-02-11T16:11:33.158Z,3.68
2019-02-11T16:14:02.611Z,3.64
2019-02-11T16:16:29.430Z,3.64
2019-02-11T16:18:57.658Z,3.59
2019-02-11T16:21:24.685Z,3.56
2019-02-11T16:24:00.264Z,3.50
2019-02-11T16:26:34.734Z,3.47
2019-02-11T16:29:02.837Z,3.44
2019-02-11T16:31:34.255Z,3.45
2019-02-11T16:34:03.197Z,3.34
2019-02-11T16:36:34.117Z,3.26
2019-02-11T16:39:04.677Z,3.14
2019-02-11T16:41:31.217Z,3.00
2019-02-11T16:43:59.792Z,2.86
2019-02-11T16:46:26.718Z,2.75
2019-02-11T16:49:00.388Z,2.68
2019-02-11T16:51:21.803Z,2.63
2019-02-11T16:53:48.602Z,2.59
2019-02-11T16:56:15.205Z,2.52
2019-02-11T16:58:41.921Z,2.47
2019-02-11T17:01:08.668Z,2.47
2019-02-11T17:03:35.206Z,2.44
2019-02-11T17:06:01.723Z,2.42
2019-02-11T17:08:28.291Z,2.41
2019-02-11T17:10:54.850Z,2.38
2019-02-11T17:13:21.827Z,2.32
2019-02-11T17:15:48.758Z,2.33
2019-02-11T17:18:15.288Z,2.36
2019-02-11T17:20:41.871Z,2.33
2019-02-11T17:23:08.686Z,2.28
2019-02-11T17:25:35.250Z,2.30
2019-02-11T17:28:01.766Z,2.39
2019-02-11T17:30:28.546Z,2.49
2019-02-11T17:32:55.280Z,2.52
2019-02-11T17:35:22.029Z,2.50
2019-02-11T17:37:48.822Z,2.51
2019-02-11T17:40:15.353Z,2.51
2019-02-11T17:42:41.845Z,2.52
2019-02-11T17:45:11.749Z,2.56
2019-02-11T17:47:38.223Z,2.60
2019-02-11T17:50:06.132Z,2.57
2019-02-11T17:52:32.778Z,2.51
2019-02-11T17:55:01.194Z,2.44
2019-02-11T17:57:27.653Z,2.41
2019-02-11T17:59:54.285Z,2.41
2019-02-11T18:02:20.865Z,2.40
2019-02-11T18:04:47.334Z,2.43
2019-02-11T18:07:13.822Z,2.38
2019-02-11T18:09:44.646Z,2.37
2019-02-11T18:12:11.699Z,2.34
2019-02-11T18:14:38.240Z,2.31
2019-02-11T18:17:05.300Z,2.24
2019-02-11T18:19:32.023Z,2.27
2019-02-11T18:22:02.992Z,2.24
2019-02-11T18:24:29.663Z,2.16
2019-02-11T18:26:56.354Z,2.13
2019-02-11T18:29:23.122Z,2.13
2019-02-11T18:31:49.971Z,2.17
2019-02-11T18:34:17.484Z,2.23
2019-02-11T18:36:45.297Z,2.32
2019-02-11T18:39:12.140Z,2.29
2019-02-11T18:41:38.849Z,2.33
2019-02-11T18:44:06.142Z,2.36
2019-02-11T18:46:32.987Z,2.38
2019-02-11T18:48:59.476Z,2.45
2019-02-11T18:51:27.051Z,2.42
2019-02-11T18:53:53.608Z,2.45
2019-02-11T18:56:20.303Z,2.45
2019-02-11T18:58:47.169Z,2.46
2019-02-11T19:01:13.741Z,2.55
2019-02-11T19:03:43.129Z,2.56
2019-02-11T19:06:09.689Z,2.52
2019-02-11T19:08:36.286Z,2.50
2019-02-11T19:11:03.276Z,2.41
2019-02-11T19:13:32.640Z,2.32
2019-02-11T19:16:00.873Z,2.24
2019-02-11T19:18:27.357Z,2.22
2019-02-11T19:20:54.819Z,2.19
2019-02-11T19:23:21.574Z,2.20
2019-02-11T19:25:49.471Z,2.26
2019-02-11T19:28:17.626Z,2.21
2019-02-11T19:30:44.167Z,2.17
2019-02-11T19:33:11.017Z,2.18
2019-02-11T19:35:38.835Z,2.11
2019-02-11T19:38:05.458Z,2.10
2019-02-11T19:40:36.722Z,2.15
2019-02-11T19:43:03.381Z,2.14
2019-02-11T19:45:41.135Z,2.07
2019-02-11T19:48:09.226Z,2.00
2019-02-11T19:50:36.756Z,1.94
2019-02-11T19:53:05.523Z,1.87
2019-02-11T19:55:32.203Z,1.89
2019-02-11T19:58:00.922Z,1.80
2019-02-11T20:00:31.809Z,1.76
2019-02-11T20:03:01.665Z,1.74
2019-02-11T20:05:28.319Z,1.77
2019-02-11T20:07:55.779Z,1.82
2019-02-11T20:10:23.173Z,1.78
2019-02-11T20:12:53.065Z,1.77
2019-02-11T20:15:20.779Z,1.80
2019-02-11T20:17:47.547Z,1.85
2019-02-11T20:20:17.900Z,1.74
2019-02-11T20:22:44.401Z,1.66
2019-02-11T20:25:11.119Z,1.65
2019-02-11T20:27:37.764Z,1.62
2019-02-11T20:30:06.113Z,1.63
2019-02-11T20:32:32.898Z,1.61
2019-02-11T20:34:59.509Z,1.70
2019-02-11T20:37:28.397Z,1.63
2019-02-11T20:40:03.150Z,1.56
2019-02-11T20:42:26.800Z,1.62
2019-02-11T20:44:53.712Z,1.71
2019-02-11T20:47:20.312Z,1.72
2019-02-11T20:49:46.939Z,1.70
2019-02-11T20:52:13.497Z,1.80
2019-02-11T20:54:41.539Z,1.88
2019-02-11T20:57:08.070Z,1.94
2019-02-11T20:59:34.831Z,2.00
2019-02-11T21:02:01.652Z,2.12
2019-02-11T21:04:36.475Z,2.13
2019-02-11T21:07:04.671Z,2.18
2019-02-11T21:09:31.278Z,2.18
2019-02-11T21:11:58.082Z,2.21
2019-02-11T21:14:25.460Z,2.23
2019-02-11T21:16:52.367Z,2.25
2019-02-11T21:19:18.938Z,2.21
2019-02-11T21:21:45.422Z,2.21
2019-02-11T21:24:12.002Z,2.25
2019-02-11T21:26:38.587Z,2.24
2019-02-11T21:29:05.126Z,2.22
2019-02-11T21:31:31.863Z,2.19
2019-02-11T21:33:58.399Z,2.16
2019-02-11T21:36:24.914Z,2.17
2019-02-11T21:38:51.796Z,2.11
2019-02-11T21:41:18.292Z,2.10
2019-02-11T21:43:47.230Z,2.06
2019-02-11T21:46:15.486Z,2.13
2019-02-11T21:48:42.025Z,2.10
2019-02-11T21:51:08.745Z,2.07
2019-02-11T21:53:37.393Z,2.13
2019-02-11T21:56:05.932Z,2.15
2019-02-11T21:58:32.552Z,2.15
2019-02-11T22:01:02.423Z,2.17
2019-02-11T22:03:28.177Z,2.24
2019-02-11T22:05:55.211Z,2.24
2019-02-11T22:08:21.755Z,2.17
2019-02-11T22:10:48.328Z,2.14
2019-02-11T22:13:15.255Z,2.23
2019-02-11T22:15:43.929Z,2.20
2019-02-11T22:18:10.431Z,2.19
2019-02-11T22:20:36.930Z,2.19
2019-02-11T22:23:03.498Z,2.21
2019-02-11T22:25:30.237Z,2.25
2019-02-11T22:27:56.759Z,2.29
2019-02-11T22:30:23.428Z,2.29
2019-02-11T22:32:52.388Z,2.27
2019-02-11T22:35:20.909Z,2.34
2019-02-11T22:37:47.882Z,2.38
2019-02-11T22:40:14.444Z,2.38
2019-02-11T22:42:41.241Z,2.37
2019-02-11T22:45:15.757Z,2.35
2019-02-11T22:47:44.270Z,2.33
2019-02-11T22:50:19.833Z,2.37
2019-02-11T22:52:47.046Z,2.34
2019-02-11T22:55:13.958Z,2.33
2019-02-11T22:57:40.648Z,2.33
2019-02-11T23:00:25.073Z,2.29
2019-02-11T23:02:51.565Z,2.29
2019-02-11T23:05:18.181Z,2.33
2019-02-11T23:07:44.705Z,2.32
2019-02-11T23:10:11.365Z,2.35
2019-02-11T23:12:37.976Z,2.35
2019-02-11T23:15:04.729Z,2.36
2019-02-11T23:17:31.420Z,2.35
2019-02-11T23:19:58.033Z,2.37
2019-02-11T23:22:24.778Z,2.33
2019-02-11T23:24:51.490Z,2.30
2019-02-11T23:27:18.077Z,2.33
2019-02-11T23:29:46.142Z,2.36
2019-02-11T23:32:12.655Z,2.33
2019-02-11T23:34:39.180Z,2.32
2019-02-11T23:37:06.044Z,2.30
2019-02-11T23:39:32.722Z,2.32
2019-02-11T23:41:59.465Z,2.29
2019-02-11T23:44:26.538Z,2.30
2019-02-11T23:46:53.093Z,2.28
2019-02-11T23:49:19.862Z,2.25
2019-02-11T23:51:46.800Z,2.28
2019-02-11T23:54:14.946Z,2.24
2019-02-11T23:56:41.527Z,2.26
2019-02-11T23:59:08.138Z,2.26
